createdAt,value
2023-01-25T00:00:10.386Z,33.63
2023-01-25T00:02:37.184Z,37.03
2023-01-25T00:05:04.336Z,39.28
2023-01-25T00:07:30.960Z,38.28
2023-01-25T00:09:57.593Z,35.75
2023-01-25T00:12:24.339Z,35.78
2023-01-25T00:14:51.036Z,35.70
2023-01-25T00:17:17.703Z,40.25
2023-01-25T00:19:44.399Z,39.45
2023-01-25T00:22:11.062Z,36.97
2023-01-25T00:24:37.682Z,36.33
2023-01-25T00:27:22.747Z,37.25
2023-01-25T00:29:49.475Z,37.17
2023-01-25T00:32:16.147Z,37.67
2023-01-25T00:34:52.394Z,42.35
2023-01-25T00:37:41.151Z,40.00
2023-01-25T00:40:12.804Z,40.67
2023-01-25T00:42:41.242Z,38.15
2023-01-25T00:45:12.978Z,39.10
2023-01-25T00:47:47.192Z,40.40
2023-01-25T00:52:42.761Z,34.90
2023-01-25T00:55:10.269Z,39.25
2023-01-25T00:57:37.142Z,44.72
2023-01-25T01:00:07.973Z,42.97
2023-01-25T01:02:37.588Z,42.95
2023-01-25T01:05:08.126Z,43.83
2023-01-25T01:07:35.087Z,46.45
2023-01-25T01:10:01.942Z,41.05
2023-01-25T01:12:28.680Z,41.78
2023-01-25T01:14:56.581Z,42.28
2023-01-25T01:17:23.513Z,47.15
2023-01-25T01:19:50.234Z,42.20
2023-01-25T01:22:16.944Z,39.95
2023-01-25T01:24:43.629Z,43.00
2023-01-25T01:27:10.439Z,46.42
2023-01-25T01:29:37.109Z,44.13
2023-01-25T01:32:04.185Z,43.30
2023-01-25T01:34:30.941Z,48.47
2023-01-25T01:36:57.656Z,42.90
2023-01-25T01:39:24.529Z,42.58
2023-01-25T01:41:51.272Z,46.28
2023-01-25T01:44:41.917Z,47.70
2023-01-25T01:47:28.849Z,48.63
2023-01-25T01:50:09.636Z,45.78
2023-01-25T01:52:38.538Z,48.88
2023-01-25T01:55:22.069Z,51.03
2023-01-25T01:58:00.733Z,51.20
2023-01-25T02:00:38.428Z,48.40
2023-01-25T02:03:07.781Z,49.90
2023-01-25T02:05:55.821Z,55.05
2023-01-25T02:08:24.996Z,55.08
2023-01-25T02:10:52.128Z,44.95
2023-01-25T02:13:21.398Z,55.55
2023-01-25T02:15:53.664Z,54.22
2023-01-25T02:18:20.576Z,60.30
2023-01-25T02:20:52.513Z,55.50
2023-01-25T02:23:53.518Z,60.50
2023-01-25T02:26:23.417Z,48.72
2023-01-25T02:29:20.156Z,52.42
2023-01-25T02:31:49.542Z,51.90
2023-01-25T02:34:16.258Z,47.50
2023-01-25T02:36:43.407Z,47.40
2023-01-25T02:39:20.091Z,48.15
2023-01-25T02:41:50.367Z,48.78
2023-01-25T02:44:27.635Z,47.92
2023-01-25T02:46:54.777Z,45.25
2023-01-25T02:49:21.997Z,50.55
2023-01-25T02:51:57.473Z,50.50
2023-01-25T02:54:26.842Z,48.20
2023-01-25T02:56:57.320Z,55.38
2023-01-25T02:59:24.186Z,51.15
2023-01-25T03:01:51.006Z,52.78
2023-01-25T03:04:17.999Z,56.15
2023-01-25T03:06:44.730Z,50.22
2023-01-25T03:09:12.409Z,51.22
2023-01-25T03:11:39.108Z,50.85
2023-01-25T03:14:09.047Z,47.00
2023-01-25T03:16:35.725Z,45.90
2023-01-25T03:19:02.620Z,48.70
2023-01-25T03:21:29.393Z,47.05
2023-01-25T03:24:01.882Z,46.83
2023-01-25T03:26:30.191Z,34.08
2023-01-25T03:28:57.220Z,50.33
2023-01-25T03:31:24.971Z,45.95
2023-01-25T03:33:51.935Z,47.22
2023-01-25T03:36:25.889Z,39.80
2023-01-25T03:38:52.532Z,43.40
2023-01-25T03:41:21.231Z,50.50
2023-01-25T03:43:47.831Z,45.58
2023-01-25T03:46:14.506Z,45.53
2023-01-25T03:48:41.406Z,47.28
2023-01-25T03:51:09.462Z,49.92
2023-01-25T03:53:36.183Z,48.40
2023-01-25T03:56:11.998Z,45.70
2023-01-25T03:58:40.076Z,45.63
2023-01-25T04:01:10.517Z,45.80
2023-01-25T04:03:37.825Z,51.28
2023-01-25T04:06:06.302Z,43.45
2023-01-25T04:08:33.155Z,34.33
2023-01-25T04:11:12.029Z,48.90
2023-01-25T04:13:40.018Z,45.92
2023-01-25T04:16:15.964Z,45.53
2023-01-25T04:18:43.569Z,50.38
2023-01-25T04:21:13.007Z,42.22
2023-01-25T04:23:39.789Z,41.55
2023-01-25T04:26:14.608Z,42.95
2023-01-25T04:28:41.751Z,41.58
2023-01-25T04:31:09.703Z,40.45
2023-01-25T04:33:42.032Z,43.28
2023-01-25T04:36:11.368Z,40.08
2023-01-25T04:38:38.168Z,41.80
2023-01-25T04:41:05.294Z,43.20
2023-01-25T04:43:32.284Z,42.30
2023-01-25T04:46:02.876Z,40.20
2023-01-25T04:48:35.338Z,34.35
2023-01-25T04:51:02.040Z,40.15
2023-01-25T04:53:28.703Z,39.85
2023-01-25T04:55:55.299Z,39.05
2023-01-25T04:58:22.072Z,41.97
2023-01-25T05:00:48.973Z,32.15
2023-01-25T05:03:15.806Z,39.92
2023-01-25T05:05:47.896Z,40.47
2023-01-25T05:08:14.613Z,44.80
2023-01-25T05:10:41.343Z,43.72
2023-01-25T05:13:07.929Z,42.50
2023-01-25T05:15:37.521Z,38.78
2023-01-25T05:18:11.362Z,45.72
2023-01-25T05:20:38.048Z,43.17
2023-01-25T05:23:04.729Z,43.67
2023-01-25T05:25:50.004Z,45.17
2023-01-25T05:28:16.657Z,42.65
2023-01-25T05:30:43.307Z,43.00
2023-01-25T05:33:09.955Z,44.10
2023-01-25T05:35:36.548Z,46.92
2023-01-25T05:38:03.571Z,42.25
2023-01-25T05:40:30.277Z,43.85
2023-01-25T05:42:59.743Z,39.95
2023-01-25T05:45:26.896Z,46.08
2023-01-25T05:47:56.692Z,41.40
2023-01-25T05:50:26.297Z,45.50
2023-01-25T05:52:52.927Z,45.47
2023-01-25T05:55:19.987Z,45.53
2023-01-25T06:03:08.411Z,47.03
2023-01-25T07:05:00.078Z,58.15
2023-01-25T07:07:26.939Z,55.22
2023-01-25T07:09:54.061Z,64.28
2023-01-25T07:12:20.789Z,71.80
2023-01-25T07:14:49.412Z,51.35
2023-01-25T08:35:40.260Z,49.10
2023-01-25T08:38:07.146Z,47.83
2023-01-25T08:40:35.859Z,45.00
2023-01-25T08:43:04.957Z,60.55
2023-01-25T08:45:34.449Z,30.13
2023-01-25T08:48:01.112Z,48.80
2023-01-25T08:50:27.889Z,48.88
2023-01-25T08:52:54.549Z,30.55
2023-01-25T08:55:21.467Z,47.20
2023-01-25T08:57:49.226Z,45.03
2023-01-25T09:00:20.890Z,49.95
2023-01-25T09:02:47.484Z,59.25
2023-01-25T09:05:14.278Z,49.65
2023-01-25T09:07:41.208Z,73.25
2023-01-25T09:10:09.231Z,48.40
2023-01-25T09:12:36.363Z,52.88
2023-01-25T09:15:04.773Z,49.13
2023-01-25T09:17:31.430Z,39.78
2023-01-25T09:19:58.190Z,49.67
2023-01-25T09:22:25.052Z,46.90
2023-01-25T09:24:53.867Z,47.40
2023-01-25T09:27:23.678Z,52.10
2023-01-25T09:30:01.542Z,45.72
2023-01-25T09:32:29.440Z,40.17
2023-01-25T09:34:56.270Z,43.90
2023-01-25T09:37:23.180Z,48.45
2023-01-25T09:39:49.824Z,52.85
2023-01-25T09:42:43.699Z,40.50
2023-01-25T09:45:34.609Z,41.05
2023-01-25T09:48:53.914Z,53.63
2023-01-25T09:52:38.850Z,44.35
2023-01-25T09:55:16.834Z,42.45
2023-01-25T09:57:48.155Z,48.35
2023-01-25T10:00:31.578Z,50.60
2023-01-25T10:03:25.454Z,38.38
2023-01-25T10:05:59.909Z,31.17
2023-01-25T10:08:30.696Z,40.75
2023-01-25T10:11:32.992Z,48.33
2023-01-25T10:14:00.644Z,38.42
2023-01-25T10:16:37.389Z,41.05
2023-01-25T10:19:35.113Z,31.58
2023-01-25T10:22:19.459Z,54.40
2023-01-25T10:25:19.544Z,31.20
2023-01-25T10:28:37.388Z,37.95
2023-01-25T10:31:16.662Z,18.35
2023-01-25T10:33:48.180Z,47.88
2023-01-25T10:36:24.228Z,35.58
2023-01-25T10:38:55.476Z,33.08
2023-01-25T10:41:38.478Z,55.80
2023-01-25T10:44:23.936Z,44.47
2023-01-25T10:47:00.950Z,42.80
2023-01-25T10:49:56.301Z,43.05
2023-01-25T10:52:30.461Z,35.53
2023-01-25T10:55:24.948Z,40.95
2023-01-25T10:57:57.935Z,35.42
2023-01-25T11:00:42.714Z,30.67
2023-01-25T11:03:39.905Z,42.45
2023-01-25T11:06:09.505Z,29.30
2023-01-25T11:08:42.969Z,37.88
2023-01-25T11:11:41.426Z,32.22
2023-01-25T11:14:18.775Z,27.60
2023-01-25T11:16:48.492Z,38.38
2023-01-25T11:19:37.307Z,35.75
2023-01-25T11:22:22.388Z,34.47
2023-01-25T11:24:49.089Z,35.78
2023-01-25T11:27:26.438Z,40.42
2023-01-25T11:30:21.337Z,37.20
2023-01-25T11:35:30.291Z,40.25
2023-01-25T11:38:26.087Z,35.13
2023-01-25T11:41:28.994Z,36.22
2023-01-25T11:45:12.936Z,31.30
2023-01-25T11:48:02.860Z,43.00
2023-01-25T11:50:51.039Z,35.60
2023-01-25T11:54:07.046Z,40.72
2023-01-25T11:57:07.474Z,34.92
2023-01-25T11:59:59.823Z,36.08
2023-01-25T12:02:42.755Z,36.28
2023-01-25T12:05:43.080Z,36.20
2023-01-25T12:09:19.671Z,39.83
2023-01-25T12:12:29.530Z,36.50
2023-01-25T12:15:35.629Z,37.40
2023-01-25T12:19:03.184Z,45.95
2023-01-25T12:22:17.686Z,39.10
2023-01-25T12:25:20.864Z,40.47
2023-01-25T12:28:19.651Z,37.17
2023-01-25T12:31:17.298Z,32.95
2023-01-25T12:34:04.035Z,42.65
2023-01-25T12:36:48.168Z,34.42
2023-01-25T12:39:32.169Z,39.90
2023-01-25T12:42:11.905Z,41.70
2023-01-25T14:28:13.755Z,46.60
2023-01-25T14:44:32.896Z,63.97
2023-01-25T14:47:34.113Z,65.38
2023-01-25T14:50:40.943Z,66.45
2023-01-25T14:53:27.119Z,65.30
2023-01-25T14:55:53.957Z,65.30
2023-01-25T14:58:27.765Z,68.57
2023-01-25T15:01:03.706Z,66.38
2023-01-25T15:03:31.888Z,70.50
2023-01-25T15:06:04.993Z,44.28
2023-01-25T15:08:51.967Z,65.30
2023-01-25T15:11:49.366Z,64.18
2023-01-25T15:14:22.177Z,67.00
2023-01-25T15:16:49.051Z,51.70
2023-01-25T15:19:30.995Z,55.80
2023-01-25T15:22:01.198Z,74.68
2023-01-25T15:24:28.636Z,52.88
2023-01-25T15:26:56.307Z,51.42
2023-01-25T15:29:28.834Z,64.57
2023-01-25T15:31:56.656Z,59.60
2023-01-25T15:34:32.590Z,64.50
2023-01-25T15:36:59.237Z,69.40
2023-01-25T15:39:31.424Z,70.97
2023-01-25T15:41:58.139Z,71.00
2023-01-25T15:44:27.199Z,60.10
2023-01-25T15:46:54.150Z,67.32
2023-01-25T15:49:32.633Z,67.90
2023-01-25T15:51:59.338Z,66.00
2023-01-25T15:54:26.366Z,70.13
2023-01-25T15:56:59.037Z,64.30
2023-01-25T15:59:29.387Z,69.35
2023-01-25T16:01:56.104Z,64.78
2023-01-25T16:04:25.131Z,73.38
2023-01-25T16:06:54.828Z,69.90
2023-01-25T16:09:29.543Z,58.40
2023-01-25T16:12:00.769Z,72.45
2023-01-25T16:14:33.165Z,70.82
2023-01-25T16:17:05.536Z,64.97
2023-01-25T16:19:33.630Z,72.03
2023-01-25T16:22:00.390Z,68.63
2023-01-25T16:24:27.550Z,72.50
2023-01-25T16:26:58.709Z,69.65
2023-01-25T16:29:26.752Z,72.05
2023-01-25T16:31:55.649Z,79.88
2023-01-25T16:34:23.129Z,75.65
2023-01-25T16:36:51.016Z,83.32
2023-01-25T16:39:29.360Z,78.78
2023-01-25T16:41:57.499Z,79.68
2023-01-25T16:44:24.430Z,75.63
2023-01-25T16:46:51.708Z,82.68
2023-01-25T16:49:30.673Z,71.53
2023-01-25T16:51:58.490Z,83.13
2023-01-25T16:54:26.663Z,79.10
2023-01-25T16:56:54.986Z,82.72
2023-01-25T16:59:24.992Z,68.05
2023-01-25T17:01:52.335Z,80.25
2023-01-25T17:04:19.725Z,78.55
2023-01-25T17:06:50.242Z,74.38
2023-01-25T17:09:25.510Z,81.60
2023-01-25T17:11:54.642Z,77.32
2023-01-25T17:14:25.292Z,74.03
2023-01-25T17:16:53.517Z,82.97
2023-01-25T17:19:20.986Z,73.78
2023-01-25T17:21:48.533Z,65.75
2023-01-25T17:24:21.500Z,72.25
2023-01-25T17:26:48.438Z,75.53
2023-01-25T17:29:15.320Z,74.22
2023-01-25T17:31:45.625Z,79.75
2023-01-25T17:34:18.121Z,84.32
2023-01-25T17:36:46.391Z,77.53
2023-01-25T17:39:16.528Z,75.22
2023-01-25T17:41:50.938Z,72.75
2023-01-25T17:44:22.785Z,75.07
2023-01-25T17:46:50.836Z,77.80
2023-01-25T17:49:18.838Z,77.28
2023-01-25T17:51:46.406Z,81.20
2023-01-25T17:54:13.420Z,83.38
2023-01-25T17:56:40.970Z,73.55
2023-01-25T17:59:11.593Z,81.53
2023-01-25T18:01:40.060Z,75.35
2023-01-25T18:39:11.137Z,79.60
2023-01-25T19:11:24.062Z,76.38
2023-01-25T19:40:42.478Z,78.32
2023-01-25T19:43:09.287Z,73.68
2023-01-25T19:45:36.042Z,73.75
2023-01-25T19:48:05.418Z,68.82
2023-01-25T19:50:32.138Z,78.75
2023-01-25T19:52:58.827Z,70.45
2023-01-25T19:55:25.423Z,61.90
2023-01-25T19:57:52.108Z,69.78
2023-01-25T20:00:19.966Z,68.18
2023-01-25T20:02:46.662Z,79.43
2023-01-25T20:05:13.400Z,81.95
2023-01-25T20:07:49.218Z,73.60
2023-01-25T20:10:16.400Z,68.82
2023-01-25T20:12:43.034Z,74.25
2023-01-25T20:15:13.300Z,82.57
2023-01-25T20:17:41.985Z,81.03
2023-01-25T20:20:10.932Z,64.75
2023-01-25T20:27:59.964Z,67.50
2023-01-25T20:36:02.339Z,70.82
2023-01-25T20:38:36.399Z,71.95
2023-01-25T20:41:08.244Z,78.63
2023-01-25T20:43:35.729Z,76.78
2023-01-25T20:46:03.061Z,75.50
2023-01-25T20:48:36.395Z,55.63
2023-01-25T20:51:13.916Z,71.23
2023-01-25T20:53:43.386Z,58.60
2023-01-25T20:56:13.460Z,72.63
2023-01-25T20:58:40.650Z,76.88
2023-01-25T21:01:17.201Z,64.00
2023-01-25T21:03:44.119Z,69.18
2023-01-25T21:06:12.135Z,66.28
2023-01-25T21:08:39.494Z,50.75
2023-01-25T21:11:11.222Z,40.08
2023-01-25T21:13:38.054Z,68.70
2023-01-25T21:16:16.401Z,65.07
2023-01-25T21:18:50.703Z,65.93
2023-01-25T21:23:58.973Z,61.22
2023-01-25T21:26:30.813Z,62.35
2023-01-25T21:29:00.886Z,75.07
2023-01-25T21:31:36.352Z,77.40
2023-01-25T21:34:05.282Z,70.68
2023-01-25T21:36:32.902Z,78.07
2023-01-25T21:38:59.985Z,69.72
2023-01-25T21:41:33.285Z,79.85
2023-01-25T21:44:19.832Z,63.43
2023-01-25T21:47:12.449Z,80.93
2023-01-25T21:49:55.310Z,58.95
2023-01-25T21:52:21.977Z,73.43
2023-01-25T21:54:48.922Z,72.00
2023-01-25T21:57:15.884Z,65.40
2023-01-25T21:59:43.922Z,73.75
2023-01-25T22:02:16.503Z,68.70
2023-01-25T22:04:43.372Z,73.15
2023-01-25T22:07:11.684Z,73.38
2023-01-25T22:09:41.547Z,74.68
2023-01-25T22:12:08.418Z,68.00
2023-01-25T22:14:35.160Z,59.70
2023-01-25T22:17:03.092Z,54.78
2023-01-25T22:19:29.731Z,70.70
2023-01-25T22:21:56.516Z,68.97
2023-01-25T22:24:23.531Z,67.53
2023-01-25T22:27:08.516Z,69.00
2023-01-25T22:29:35.192Z,63.85
2023-01-25T22:32:02.344Z,52.95
2023-01-25T22:34:29.099Z,67.15
2023-01-25T22:36:55.757Z,67.53
2023-01-25T22:39:22.412Z,62.78
2023-01-25T22:41:49.047Z,66.20
2023-01-25T22:44:16.551Z,62.42
2023-01-25T22:46:43.212Z,66.07
2023-01-25T22:49:10.003Z,64.78
2023-01-25T22:51:36.796Z,65.10
2023-01-25T22:54:03.633Z,64.70
2023-01-25T22:56:33.700Z,62.03
2023-01-25T22:59:02.154Z,67.40
2023-01-25T23:01:34.250Z,58.97
2023-01-25T23:04:02.477Z,60.92
2023-01-25T23:06:34.134Z,59.70
2023-01-25T23:09:04.819Z,62.60
2023-01-25T23:11:37.858Z,61.78
2023-01-25T23:14:29.902Z,66.43
2023-01-25T23:17:17.206Z,66.57
2023-01-25T23:19:44.222Z,56.38
2023-01-25T23:22:10.966Z,64.53
2023-01-25T23:24:37.624Z,64.65
2023-01-25T23:27:04.334Z,59.10
2023-01-25T23:29:31.731Z,67.05
2023-01-25T23:31:58.376Z,55.47
2023-01-25T23:34:25.329Z,59.70
2023-01-25T23:36:51.993Z,60.50
2023-01-25T23:39:19.784Z,65.07
2023-01-25T23:41:46.653Z,61.72
2023-01-25T23:44:13.330Z,60.65
2023-01-25T23:46:42.956Z,66.22
2023-01-25T23:49:12.465Z,59.75
2023-01-25T23:51:39.082Z,74.10
2023-01-25T23:54:06.018Z,58.58
2023-01-25T23:56:32.702Z,60.50
2023-01-25T23:58:59.490Z,62.58
